createdAt,value
2023-02-24T00:01:21.469Z,4.57
2023-02-24T00:03:48.309Z,4.59
2023-02-24T00:06:14.781Z,4.55
2023-02-24T00:08:41.791Z,4.53
2023-02-24T00:11:13.067Z,4.55
2023-02-24T00:13:40.582Z,4.17
2023-02-24T00:16:07.561Z,4.53
2023-02-24T00:18:34.301Z,4.57
2023-02-24T00:21:10.577Z,4.31
2023-02-24T00:23:37.727Z,4.46
2023-02-24T00:26:05.378Z,4.60
2023-02-24T00:28:32.244Z,4.61
2023-02-24T00:31:03.971Z,4.48
2023-02-24T00:33:30.409Z,4.23
2023-02-24T00:36:05.033Z,4.20
2023-02-24T00:38:31.494Z,4.40
2023-02-24T00:40:57.950Z,4.10
2023-02-24T00:43:24.526Z,4.53
2023-02-24T00:45:50.986Z,4.53
2023-02-24T00:48:17.465Z,4.46
2023-02-24T00:50:43.948Z,4.52
2023-02-24T00:53:10.345Z,4.47
2023-02-24T00:55:36.768Z,4.22
2023-02-24T00:58:04.303Z,4.57
2023-02-24T01:00:32.219Z,4.64
2023-02-24T01:02:58.642Z,4.67
2023-02-24T01:05:25.294Z,4.69
2023-02-24T01:07:51.995Z,4.65
2023-02-24T01:10:18.661Z,4.61
2023-02-24T01:12:45.097Z,4.61
2023-02-24T01:15:11.639Z,4.70
2023-02-24T01:17:38.206Z,4.61
2023-02-24T01:20:07.685Z,4.67
2023-02-24T01:22:34.161Z,4.63
2023-02-24T01:25:00.642Z,4.21
2023-02-24T01:27:27.069Z,4.43
2023-02-24T01:29:53.562Z,4.48
2023-02-24T01:32:21.649Z,4.22
2023-02-24T01:34:52.116Z,4.12
2023-02-24T01:37:18.901Z,3.98
2023-02-24T01:39:45.405Z,3.89
2023-02-24T01:42:14.777Z,3.78
2023-02-24T01:44:41.147Z,3.61
2023-02-24T01:47:07.619Z,3.46
2023-02-24T01:49:35.912Z,3.30
2023-02-24T01:52:15.207Z,3.35
2023-02-24T01:54:50.106Z,3.02
2023-02-24T01:57:19.665Z,3.15
2023-02-24T01:59:49.301Z,2.89
2023-02-24T02:02:17.140Z,2.96
2023-02-24T02:04:51.394Z,2.65
2023-02-24T02:07:21.543Z,2.63
2023-02-24T02:09:49.293Z,2.96
2023-02-24T02:12:15.706Z,2.29
2023-02-24T02:14:46.641Z,2.76
2023-02-24T02:17:15.687Z,2.44
2023-02-24T02:19:48.160Z,2.86
2023-02-24T02:22:56.687Z,2.66
2023-02-24T02:25:35.069Z,2.87
2023-02-24T02:28:31.544Z,2.64
2023-02-24T02:31:12.330Z,2.67
2023-02-24T02:34:16.196Z,2.60
2023-02-24T02:37:01.536Z,2.62
2023-02-24T02:39:38.149Z,2.13
2023-02-24T02:42:26.141Z,2.26
2023-02-24T02:44:55.528Z,2.38
2023-02-24T02:48:07.361Z,2.29
2023-02-24T02:50:54.347Z,1.93
2023-02-24T02:53:34.213Z,2.30
2023-02-24T02:56:10.666Z,1.96
2023-02-24T02:58:42.118Z,2.08
2023-02-24T03:01:11.070Z,2.08
2023-02-24T03:03:44.424Z,2.07
2023-02-24T03:06:16.067Z,2.11
2023-02-24T03:09:05.229Z,1.99
2023-02-24T03:11:31.688Z,2.05
2023-02-24T03:13:58.517Z,1.99
2023-02-24T03:16:27.133Z,1.58
2023-02-24T03:18:59.758Z,2.03
2023-02-24T03:21:34.623Z,1.97
2023-02-24T03:24:02.243Z,1.67
2023-02-24T03:26:37.549Z,1.93
2023-02-24T03:29:11.470Z,1.80
2023-02-24T03:32:12.262Z,1.73
2023-02-24T03:35:13.776Z,1.81
2023-02-24T03:37:40.227Z,1.78
2023-02-24T03:40:10.851Z,1.86
2023-02-24T03:42:40.148Z,1.89
2023-02-24T03:45:08.258Z,1.45
2023-02-24T03:47:34.997Z,1.62
2023-02-24T03:50:01.483Z,1.97
2023-02-24T03:52:43.282Z,2.21
2023-02-24T03:55:21.794Z,2.32
2023-02-24T03:57:48.236Z,2.08
2023-02-24T04:00:22.249Z,1.85
2023-02-24T04:02:53.238Z,1.98
2023-02-24T04:05:23.750Z,2.10
2023-02-24T04:08:07.138Z,2.05
2023-02-24T04:10:45.010Z,1.45
2023-02-24T04:13:57.421Z,1.89
2023-02-24T04:16:37.979Z,1.72
2023-02-24T04:19:09.244Z,1.93
2023-02-24T04:21:38.357Z,1.96
2023-02-24T04:24:07.134Z,1.78
2023-02-24T04:26:36.572Z,1.91
2023-02-24T04:29:03.670Z,1.85
2023-02-24T04:31:31.698Z,1.87
2023-02-24T04:33:58.210Z,1.80
2023-02-24T04:36:24.654Z,1.78
2023-02-24T04:38:51.220Z,1.81
2023-02-24T04:41:18.449Z,1.64
2023-02-24T04:43:45.199Z,1.77
2023-02-24T04:46:11.680Z,1.83
2023-02-24T04:48:38.267Z,1.40
2023-02-24T04:51:05.091Z,1.83
2023-02-24T04:53:31.585Z,1.61
2023-02-24T04:56:02.723Z,1.58
2023-02-24T04:58:29.125Z,1.40
2023-02-24T05:00:56.037Z,1.39
2023-02-24T05:03:24.139Z,1.37
2023-02-24T05:05:53.252Z,0.87
2023-02-24T05:08:20.041Z,1.36
2023-02-24T05:10:47.106Z,1.36
2023-02-24T05:13:21.957Z,0.94
2023-02-24T05:15:48.468Z,1.43
2023-02-24T05:18:16.072Z,1.07
2023-02-24T05:20:54.153Z,1.60
2023-02-24T05:23:27.635Z,1.46
2023-02-24T05:25:54.246Z,1.54
2023-02-24T05:28:24.126Z,1.48
2023-02-24T05:30:51.246Z,1.54
2023-02-24T05:33:18.314Z,1.62
2023-02-24T05:35:44.804Z,1.58
2023-02-24T05:38:11.345Z,1.60
2023-02-24T05:40:37.770Z,1.60
2023-02-24T05:43:04.240Z,1.60
2023-02-24T05:45:30.711Z,1.55
2023-02-24T05:47:57.198Z,1.62
2023-02-24T05:50:23.715Z,1.56
2023-02-24T05:52:50.127Z,1.49
2023-02-24T05:55:16.719Z,1.56
2023-02-24T05:57:43.169Z,1.45
2023-02-24T06:00:10.302Z,1.54
2023-02-24T06:02:37.004Z,1.13
2023-02-24T06:05:03.756Z,1.55
2023-02-24T06:07:32.014Z,1.54
2023-02-24T06:09:59.066Z,1.33
2023-02-24T06:12:31.424Z,1.63
2023-02-24T06:14:57.884Z,1.78
2023-02-24T06:17:24.656Z,1.78
2023-02-24T06:19:53.106Z,1.72
2023-02-24T06:22:22.350Z,1.18
2023-02-24T06:24:49.748Z,1.55
2023-02-24T06:27:19.522Z,1.68
2023-02-24T06:29:50.380Z,1.68
2023-02-24T06:32:23.594Z,1.68
2023-02-24T06:34:51.401Z,1.75
2023-02-24T06:37:18.269Z,1.73
2023-02-24T06:39:44.970Z,1.97
2023-02-24T06:42:12.640Z,2.04
2023-02-24T06:44:41.226Z,1.81
2023-02-24T06:47:11.406Z,1.71
2023-02-24T06:49:37.849Z,2.08
2023-02-24T06:52:04.992Z,1.62
2023-02-24T06:54:31.833Z,2.05
2023-02-24T06:56:59.337Z,1.84
2023-02-24T06:59:26.609Z,1.85
2023-02-24T07:01:53.058Z,2.16
2023-02-24T07:04:19.633Z,2.14
2023-02-24T07:06:54.308Z,1.94
2023-02-24T07:09:23.419Z,2.27
2023-02-24T07:11:52.708Z,1.88
2023-02-24T07:14:29.017Z,2.47
2023-02-24T07:16:55.734Z,2.35
2023-02-24T07:19:26.565Z,2.34
2023-02-24T07:21:57.563Z,2.52
2023-02-24T07:24:24.118Z,2.64
2023-02-24T07:26:58.130Z,2.31
2023-02-24T07:29:26.235Z,2.58
2023-02-24T07:31:53.340Z,2.75
2023-02-24T07:34:21.632Z,2.83
2023-02-24T07:36:48.074Z,2.92
2023-02-24T07:39:16.825Z,2.78
2023-02-24T07:41:43.297Z,2.99
2023-02-24T07:44:09.723Z,3.01
2023-02-24T07:46:36.411Z,3.04
2023-02-24T07:49:02.979Z,2.68
2023-02-24T07:51:29.911Z,3.03
2023-02-24T07:53:59.296Z,3.04
2023-02-24T07:56:27.848Z,2.74
2023-02-24T07:58:58.854Z,2.80
2023-02-24T08:01:27.288Z,3.13
2023-02-24T08:03:59.404Z,2.91
2023-02-24T08:06:26.670Z,3.00
2023-02-24T08:08:56.549Z,2.99
2023-02-24T08:11:23.735Z,3.65
2023-02-24T08:13:50.197Z,3.54
2023-02-24T08:16:16.683Z,3.32
2023-02-24T08:18:43.117Z,3.57
2023-02-24T08:21:09.582Z,3.52
2023-02-24T08:23:36.022Z,3.48
2023-02-24T08:26:03.122Z,3.83
2023-02-24T08:28:29.536Z,3.96
2023-02-24T08:30:56.098Z,4.03
2023-02-24T08:33:23.067Z,4.09
2023-02-24T08:35:54.283Z,4.00
2023-02-24T08:38:22.950Z,3.94
2023-02-24T08:40:52.362Z,3.58
2023-02-24T08:43:30.750Z,3.70
2023-02-24T08:46:13.984Z,4.25
2023-02-24T08:48:43.429Z,4.30
2023-02-24T08:51:19.780Z,4.27
2023-02-24T08:53:46.565Z,4.63
2023-02-24T08:56:16.113Z,5.12
2023-02-24T08:58:44.634Z,5.17
2023-02-24T09:01:17.465Z,5.17
2023-02-24T09:03:48.090Z,5.43
2023-02-24T09:06:17.634Z,4.51
2023-02-24T09:08:46.041Z,4.48
2023-02-24T09:11:15.079Z,5.29
2023-02-24T09:13:46.176Z,5.31
2023-02-24T09:16:12.682Z,5.37
2023-02-24T09:18:39.261Z,5.88
2023-02-24T09:21:10.717Z,5.48
2023-02-24T09:23:37.116Z,5.77
2023-02-24T09:26:03.643Z,6.34
2023-02-24T09:28:30.116Z,6.42
2023-02-24T09:30:58.995Z,6.58
2023-02-24T09:33:29.804Z,6.31
2023-02-24T09:36:01.690Z,5.91
2023-02-24T09:38:28.695Z,5.58
2023-02-24T09:40:55.136Z,5.78
2023-02-24T09:43:29.388Z,5.80
2023-02-24T09:46:08.069Z,5.69
2023-02-24T09:48:56.843Z,5.72
2023-02-24T09:51:23.735Z,5.76
2023-02-24T09:53:54.599Z,5.76
2023-02-24T09:56:26.303Z,5.84
2023-02-24T09:59:08.177Z,5.77
2023-02-24T10:02:04.030Z,5.78
2023-02-24T10:04:48.767Z,5.89
2023-02-24T10:07:31.154Z,5.21
2023-02-24T10:10:05.455Z,5.43
2023-02-24T10:12:34.949Z,5.87
2023-02-24T10:15:13.527Z,5.54
2023-02-24T10:17:40.005Z,5.39
2023-02-24T10:20:16.504Z,5.43
2023-02-24T10:22:52.929Z,5.50
2023-02-24T10:25:37.710Z,5.58
2023-02-24T10:28:33.634Z,5.50
2023-02-24T10:31:08.271Z,5.14
2023-02-24T10:33:36.996Z,5.48
2023-02-24T10:36:17.884Z,5.63
2023-02-24T10:38:45.788Z,5.56
2023-02-24T10:41:15.361Z,5.66
2023-02-24T10:43:53.841Z,5.81
2023-02-24T10:46:40.701Z,5.70
2023-02-24T10:49:10.428Z,6.07
2023-02-24T10:51:42.049Z,5.92
2023-02-24T10:54:19.657Z,6.21
2023-02-24T10:56:46.315Z,6.28
2023-02-24T10:59:15.812Z,5.52
2023-02-24T11:01:43.267Z,5.48
2023-02-24T11:04:15.203Z,5.95
2023-02-24T11:06:41.717Z,5.95
2023-02-24T11:09:13.908Z,6.09
2023-02-24T11:11:40.370Z,6.32
2023-02-24T11:14:17.015Z,6.06
2023-02-24T11:16:55.014Z,5.71
2023-02-24T11:19:21.444Z,6.01
2023-02-24T11:21:47.918Z,5.59
2023-02-24T11:24:18.974Z,5.54
2023-02-24T11:26:46.278Z,5.28
2023-02-24T11:29:23.740Z,5.52
2023-02-24T11:32:08.794Z,5.51
2023-02-24T11:35:02.030Z,5.27
2023-02-24T11:37:34.221Z,5.42
2023-02-24T11:40:05.519Z,5.09
2023-02-24T11:42:39.159Z,5.40
2023-02-24T11:45:14.356Z,5.33
2023-02-24T11:47:49.364Z,5.48
2023-02-24T11:50:32.884Z,4.91
2023-02-24T11:53:07.888Z,5.61
2023-02-24T11:55:39.890Z,5.36
2023-02-24T11:58:33.770Z,5.42
2023-02-24T12:01:10.618Z,5.40
2023-02-24T12:03:52.058Z,5.46
2023-02-24T12:06:31.073Z,5.33
2023-02-24T12:09:03.208Z,5.48
2023-02-24T12:11:38.888Z,5.51
2023-02-24T12:14:11.465Z,5.36
2023-02-24T12:16:43.286Z,5.42
2023-02-24T12:19:18.651Z,5.26
2023-02-24T12:21:55.027Z,5.30
2023-02-24T12:24:21.791Z,5.26
2023-02-24T12:27:03.138Z,4.96
2023-02-24T12:29:35.618Z,5.42
2023-02-24T12:32:14.317Z,5.43
2023-02-24T12:35:11.579Z,5.48
2023-02-24T12:38:15.915Z,5.31
2023-02-24T12:41:14.782Z,5.31
2023-02-24T12:43:41.172Z,5.30
2023-02-24T12:46:13.341Z,5.33
2023-02-24T12:49:01.284Z,5.47
2023-02-24T12:51:55.169Z,5.53
2023-02-24T12:54:37.810Z,4.98
2023-02-24T12:57:31.891Z,5.42
2023-02-24T13:00:08.127Z,5.55
2023-02-24T13:03:08.063Z,5.61
2023-02-24T13:05:46.142Z,5.71
2023-02-24T13:08:24.443Z,5.76
2023-02-24T13:10:57.150Z,5.51
2023-02-24T13:13:30.593Z,6.05
2023-02-24T13:15:59.214Z,5.78
2023-02-24T13:18:35.135Z,5.62
2023-02-24T13:21:15.403Z,5.95
2023-02-24T13:23:52.141Z,5.66
2023-02-24T13:26:23.477Z,6.07
2023-02-24T13:29:03.380Z,6.01
2023-02-24T13:31:48.386Z,6.18
2023-02-24T13:34:44.709Z,6.50
2023-02-24T13:37:11.452Z,6.22
2023-02-24T13:39:40.236Z,6.77
2023-02-24T13:42:25.136Z,6.76
2023-02-24T13:45:17.662Z,6.83
2023-02-24T13:48:05.938Z,6.45
2023-02-24T13:50:35.345Z,6.70
2023-02-24T13:53:34.036Z,6.67
2023-02-24T13:56:09.370Z,6.94
2023-02-24T13:58:58.904Z,6.84
2023-02-24T14:01:28.078Z,6.66
2023-02-24T14:04:15.831Z,6.69
2023-02-24T14:06:51.569Z,6.68
2023-02-24T14:09:23.405Z,6.66
2023-02-24T14:11:55.802Z,6.63
2023-02-24T14:14:23.252Z,6.51
2023-02-24T14:16:50.932Z,6.75
2023-02-24T14:19:18.209Z,6.82
2023-02-24T14:21:53.177Z,6.56
2023-02-24T14:24:20.253Z,6.94
2023-02-24T14:26:54.265Z,7.06
2023-02-24T14:29:25.102Z,7.15
2023-02-24T14:31:54.634Z,7.29
2023-02-24T14:34:27.311Z,8.05
2023-02-24T14:36:56.362Z,8.44
2023-02-24T14:39:31.115Z,8.22
2023-02-24T14:42:09.628Z,7.74
2023-02-24T14:44:42.923Z,7.43
2023-02-24T14:47:12.374Z,7.35
2023-02-24T14:49:38.963Z,7.28
2023-02-24T14:52:11.225Z,7.08
2023-02-24T14:54:52.308Z,6.89
2023-02-24T14:57:25.345Z,7.55
2023-02-24T15:00:02.716Z,7.68
2023-02-24T15:02:33.394Z,7.79
2023-02-24T15:05:00.391Z,7.76
2023-02-24T15:07:30.620Z,7.62
2023-02-24T15:09:57.886Z,7.46
2023-02-24T15:12:33.905Z,6.98
2023-02-24T15:15:21.773Z,7.26
2023-02-24T15:17:58.301Z,6.83
2023-02-24T15:20:30.014Z,7.18
2023-02-24T15:22:57.195Z,7.44
2023-02-24T15:25:41.889Z,7.51
2023-02-24T15:28:29.997Z,7.46
2023-02-24T15:31:05.410Z,7.26
2023-02-24T15:33:41.031Z,7.49
2023-02-24T15:36:23.923Z,7.23
2023-02-24T15:39:01.803Z,7.08
2023-02-24T15:41:42.271Z,6.94
2023-02-24T15:44:30.412Z,6.97
2023-02-24T15:46:58.629Z,7.60
2023-02-24T15:49:25.594Z,7.61
2023-02-24T15:51:54.645Z,7.39
2023-02-24T15:54:36.136Z,7.39
2023-02-24T15:57:04.205Z,7.28
2023-02-24T15:59:30.982Z,6.61
2023-02-24T16:01:57.564Z,6.77
2023-02-24T16:04:24.745Z,6.68
2023-02-24T16:06:54.834Z,6.53
2023-02-24T16:09:35.606Z,6.08
2023-02-24T16:12:21.828Z,6.23
2023-02-24T16:14:49.470Z,6.07
2023-02-24T16:17:43.216Z,6.07
2023-02-24T16:20:14.036Z,5.98
2023-02-24T16:22:40.949Z,6.10
2023-02-24T16:25:07.722Z,6.18
2023-02-24T16:27:34.521Z,5.90
2023-02-24T16:30:01.280Z,5.98
2023-02-24T16:32:28.014Z,6.01
2023-02-24T16:34:54.932Z,5.55
2023-02-24T16:37:24.276Z,5.62
2023-02-24T16:39:50.741Z,6.03
2023-02-24T16:42:17.570Z,6.06
2023-02-24T16:44:44.682Z,5.91
2023-02-24T16:47:19.288Z,5.91
2023-02-24T16:49:46.268Z,5.83
2023-02-24T16:52:13.407Z,5.34
2023-02-24T16:54:39.927Z,5.69
2023-02-24T16:57:06.486Z,5.55
2023-02-24T16:59:33.185Z,5.54
2023-02-24T17:01:59.737Z,5.49
2023-02-24T17:04:26.263Z,5.44
2023-02-24T17:06:52.787Z,5.46
2023-02-24T17:09:19.335Z,5.06
2023-02-24T17:11:45.853Z,5.37
2023-02-24T17:14:20.141Z,5.37
2023-02-24T17:16:47.678Z,5.35
2023-02-24T17:19:14.269Z,5.24
2023-02-24T17:21:44.232Z,5.42
2023-02-24T17:24:16.827Z,5.20
2023-02-24T17:26:43.758Z,5.43
2023-02-24T17:29:11.353Z,5.43
2023-02-24T17:31:37.944Z,5.39
2023-02-24T17:34:06.271Z,5.11
2023-02-24T17:36:33.035Z,5.15
2023-02-24T17:38:59.668Z,5.04
2023-02-24T17:41:26.420Z,5.11
2023-02-24T17:43:53.982Z,4.99
2023-02-24T17:46:20.667Z,4.79
2023-02-24T17:48:47.343Z,4.92
2023-02-24T17:51:15.498Z,4.51
2023-02-24T17:53:41.997Z,4.81
2023-02-24T17:56:09.214Z,4.92
2023-02-24T17:58:36.772Z,4.99
2023-02-24T18:01:05.016Z,4.94
2023-02-24T18:03:33.272Z,4.89
2023-02-24T18:06:06.118Z,4.87
2023-02-24T18:08:34.030Z,4.88
2023-02-24T18:11:01.053Z,5.05
2023-02-24T18:13:29.282Z,4.63
2023-02-24T18:15:55.890Z,4.56
2023-02-24T18:18:23.094Z,4.96
2023-02-24T18:20:49.525Z,4.97
2023-02-24T18:23:16.034Z,4.92
2023-02-24T18:25:42.531Z,4.90
2023-02-24T18:28:09.044Z,4.90
2023-02-24T18:30:38.134Z,4.77
2023-02-24T18:33:04.826Z,4.36
2023-02-24T18:35:31.402Z,4.71
2023-02-24T18:37:57.887Z,4.88
2023-02-24T18:40:26.287Z,4.42
2023-02-24T18:42:52.960Z,4.88
2023-02-24T18:45:20.605Z,4.60
2023-02-24T18:47:47.187Z,4.89
2023-02-24T18:50:14.595Z,4.87
2023-02-24T18:52:41.454Z,4.83
2023-02-24T18:55:09.084Z,4.70
2023-02-24T18:57:35.884Z,4.32
2023-02-24T19:00:04.821Z,4.53
2023-02-24T19:02:31.285Z,4.62
2023-02-24T19:04:57.929Z,4.67
2023-02-24T19:07:24.364Z,4.12
2023-02-24T19:09:50.983Z,4.68
2023-02-24T19:12:17.801Z,4.56
2023-02-24T19:14:44.666Z,4.55
2023-02-24T19:17:11.248Z,4.53
2023-02-24T19:19:39.151Z,4.47
2023-02-24T19:22:05.603Z,4.33
2023-02-24T19:24:32.088Z,4.33
2023-02-24T19:26:58.577Z,4.31
2023-02-24T19:29:27.044Z,4.34
2023-02-24T19:31:54.676Z,4.33
2023-02-24T19:34:21.600Z,4.17
2023-02-24T19:36:48.025Z,4.26
2023-02-24T19:39:16.626Z,3.79
2023-02-24T19:41:43.520Z,4.22
2023-02-24T19:44:10.120Z,4.16
2023-02-24T19:46:36.665Z,4.20
2023-02-24T19:49:04.451Z,4.15
2023-02-24T19:51:31.704Z,4.14
2023-02-24T19:54:00.425Z,4.12
2023-02-24T19:56:30.207Z,4.14
2023-02-24T19:58:58.393Z,4.08
2023-02-24T20:01:25.764Z,4.05
2023-02-24T20:03:55.566Z,3.97
2023-02-24T20:06:25.450Z,3.72
2023-02-24T20:08:52.609Z,3.46
2023-02-24T20:11:19.327Z,3.88
2023-02-24T20:13:46.458Z,3.86
2023-02-24T20:16:15.805Z,3.99
2023-02-24T20:18:42.843Z,4.12
2023-02-24T20:21:09.662Z,4.11
2023-02-24T20:23:36.401Z,3.91
2023-02-24T20:26:03.612Z,4.33
2023-02-24T20:28:30.643Z,4.25
2023-02-24T20:30:59.231Z,4.40
2023-02-24T20:33:26.129Z,4.36
2023-02-24T20:35:52.627Z,4.27
2023-02-24T20:38:19.112Z,4.29
2023-02-24T20:40:45.632Z,4.27
2023-02-24T20:43:12.078Z,4.13
2023-02-24T20:45:38.997Z,4.09
2023-02-24T20:48:05.517Z,3.93
2023-02-24T20:50:32.015Z,4.08
2023-02-24T20:52:58.477Z,4.00
2023-02-24T20:55:25.052Z,3.73
2023-02-24T20:57:51.503Z,3.49
2023-02-24T21:00:18.550Z,3.75
2023-02-24T21:02:45.061Z,3.41
2023-02-24T21:05:23.911Z,3.82
2023-02-24T21:07:50.561Z,3.67
2023-02-24T21:10:18.445Z,3.78
2023-02-24T21:12:45.620Z,3.69
2023-02-24T21:15:12.327Z,3.65
2023-02-24T21:17:39.628Z,3.61
2023-02-24T21:20:07.542Z,3.65
2023-02-24T21:22:34.014Z,3.26
2023-02-24T21:25:00.553Z,3.91
2023-02-24T21:27:27.012Z,3.99
2023-02-24T21:29:53.539Z,3.96
2023-02-24T21:32:20.163Z,3.89
2023-02-24T21:34:46.879Z,3.85
2023-02-24T21:37:13.361Z,3.86
2023-02-24T21:39:39.785Z,3.70
2023-02-24T21:42:06.281Z,3.24
2023-02-24T21:44:33.159Z,3.12
2023-02-24T21:46:59.590Z,3.68
2023-02-24T21:49:26.132Z,3.71
2023-02-24T21:51:52.549Z,3.35
2023-02-24T21:54:18.974Z,3.37
2023-02-24T21:56:45.516Z,3.66
2023-02-24T21:59:11.954Z,3.83
2023-02-24T22:01:44.138Z,3.37
2023-02-24T22:04:17.335Z,3.61
2023-02-24T22:06:43.945Z,3.69
2023-02-24T22:09:11.844Z,3.18
2023-02-24T22:11:40.283Z,3.66
2023-02-24T22:14:11.141Z,3.76
2023-02-24T22:16:37.742Z,3.68
2023-02-24T22:19:04.643Z,3.71
2023-02-24T22:21:32.677Z,3.60
2023-02-24T22:24:01.457Z,3.43
2023-02-24T22:26:30.235Z,3.54
2023-02-24T22:28:56.941Z,3.64
2023-02-24T22:31:26.039Z,3.69
2023-02-24T22:33:52.824Z,3.69
2023-02-24T22:36:33.884Z,3.52
2023-02-24T22:39:01.390Z,3.62
2023-02-24T22:41:33.526Z,3.66
2023-02-24T22:44:01.063Z,3.34
2023-02-24T22:46:30.543Z,3.30
2023-02-24T22:48:57.967Z,3.61
2023-02-24T22:51:25.617Z,3.62
2023-02-24T22:53:52.561Z,3.17
2023-02-24T22:56:29.420Z,3.64
2023-02-24T22:58:56.412Z,3.62
2023-02-24T23:01:37.023Z,3.40
2023-02-24T23:04:06.372Z,3.67
2023-02-24T23:06:34.253Z,3.64
2023-02-24T23:09:02.315Z,3.48
2023-02-24T23:11:33.052Z,3.48
2023-02-24T23:14:02.474Z,3.26
2023-02-24T23:16:34.838Z,3.37
2023-02-24T23:19:05.150Z,3.30
2023-02-24T23:21:36.379Z,3.24
2023-02-24T23:24:03.647Z,2.94
2023-02-24T23:26:35.909Z,3.34
2023-02-24T23:29:03.454Z,3.35
2023-02-24T23:31:30.126Z,3.11
2023-02-24T23:33:56.646Z,3.43
2023-02-24T23:36:24.050Z,3.50
2023-02-24T23:38:50.902Z,3.62
2023-02-24T23:41:17.588Z,3.25
2023-02-24T23:43:44.175Z,3.58
2023-02-24T23:46:12.460Z,3.62
2023-02-24T23:48:39.516Z,3.53
2023-02-24T23:51:09.114Z,3.57
2023-02-24T23:53:40.765Z,3.65
2023-02-24T23:56:27.374Z,3.51
2023-02-24T23:58:58.630Z,3.39
